• Join FlightAware (Why Join?)
  • Login
  • US Flag 
09:23AM EDT


 

Airport Tracker/Info


-or-


 

Live Flight TrackerFlight Track Log ✈ UAL5900 ✈ 13-Apr-2013 ✈ KLAN - KORD

Flight Track Log - Related Links

Times and Time Zones

All times are in EDT time to prevent confusion due to time zone crossing. See the UAL5900 flight status page for this flight to view local times or setup timezone preferences in your user account.

Time Position Orientation Groundspeed Altitude Reporting Facility
EDT Latitude Longitude Course Direction KTS MPH feet Rate Location/Type
04:24PM 42.7742 -84.6383 270° West 152 175 28,000  Level Chicago Center
04:25PM 42.7800 -84.6997 277° West 202 232 5,800 -9,540 Descending Chicago Center
04:26PM 42.7808 -84.7847 271° West 217 250 8,500 2,460 Climbing Chicago Center
04:27PM 42.7667 -84.9124 270° West  Level FlightAware Approximate
04:28PM 42.7667 -84.9947 270° West  Level FlightAware Approximate
04:28PM 42.7811 -84.8764 270° West 236 272 10,900  Level Chicago Center
04:29PM 42.7775 -85.0756 281° West  Level FlightAware Approximate
04:29PM 42.7831 -84.9872 271° West 285 328 12,200  Level Chicago Center
04:30PM 42.7834 -85.1504 270° West  Level FlightAware Approximate
04:30PM 42.7842 -85.1250 271° West 303 349 14,500  Level Chicago Center
04:31PM 42.7853 -85.2444 271° West 311 358 15,900 720 Climbing Chicago Center
04:32PM 42.7867 -85.3717 271° West 329 379 16,000  Climbing Chicago Center
04:33PM 42.7864 -85.5000 270° West 337 388 16,000  Level Chicago Center
04:34PM 42.7642 -85.6247 256° West 339 390 16,000  Level Chicago Center
04:35PM 42.7419 -85.7494 256° West 338 389 16,000  Level Chicago Center
04:36PM 42.7206 -85.8703 256° West 330 380 16,000  Level Chicago Center
04:37PM 42.6986 -85.9875 256° West 321 369 16,000  Level Chicago Center
04:38PM 42.6725 -86.1292 256° West 320 368 16,000  Level Chicago Center
04:39PM 42.6506 -86.2469 256° West 321 369 16,000  Level Chicago Center
04:40PM 42.6281 -86.3633 255° West 317 365 16,000  Level Chicago Center
04:41PM 42.6061 -86.4819 256° West 322 371 16,000 -180 Level Chicago Center
04:42PM 42.5839 -86.6017 256° West 326 375 15,700 -1,020 Descending Chicago Center
04:43PM 42.5622 -86.7167 256° West 320 368 13,900 -1,860 Descending Chicago Center
04:44PM 42.5339 -86.8222 250° West 304 350 12,000 -1,800 Descending Chicago Center
04:45PM 42.5061 -86.9283 250° West 255 293 10,300 -1,320 Descending Chicago Center
04:46PM 42.4825 -87.0136 249° West 242 278 9,300 -660 Descending Chicago Center
04:47PM 42.4597 -87.0925 249° West 229 264 9,000 -540 Descending Chicago Center
04:48PM 42.4375 -87.1750 250° West 232 267 8,300 -840 Descending Chicago Center
04:49PM 42.3881 -87.2344 222° Southwest 245 282 7,400 -960 Descending Chicago Center
04:50PM 42.3336 -87.2825 213° Southwest 235 270 6,400 -720 Descending Chicago Center
04:51PM 42.2797 -87.3592 226° Southwest 240 276 6,000 -360 Descending Chicago Center
04:52PM 42.2378 -87.4275 230° Southwest 238 274 5,700 -540 Descending Chicago Center
04:53PM 42.1958 -87.4928 229° Southwest 233 268 5,000 -360 Descending Chicago Center
04:54PM 42.1533 -87.5586 229° Southwest 234 269 5,000  Level Chicago Center
04:55PM 42.1167 -87.6000 220° Southwest 231 266 5,000 -180 Level Chicago TRACON
04:56PM 42.1000 -87.6500 246° West 177 204 4,800 -600 Descending Chicago TRACON
04:57PM 42.0667 -87.7000 228° Southwest 165 190 4,000 -900 Descending Chicago TRACON
04:58PM 42.0333 -87.7500 228° Southwest 163 188 3,200 -900 Descending Chicago TRACON
04:59PM 42.0167 -87.7833 236° Southwest 167 192 2,200 -780 Descending Chicago TRACON
05:00PM 42.0000 -87.8333 246° West 115 132 1,700 -540 Descending Chicago TRACON